Wednesday, November 14, 2018, 8:00 PM CST
Back to Local

KARR, Chicago Aurora Municipal

Location: Sugar Grove, IL, United States Lat: 41.767
Local Time: 8:00 PM CST ( 2:00 GMT) Lon: -88.467
Time Zone: US/Central Elev: 711 ft

Show me the last for .
Show Coded

Time T Td Feel RH Dir Speed Gust Alt SLP Vis Weather Sky Remarks
2018-11-14 18:52 26 17 18 68 70° 7 - 30.43 30.46 9 CLR None
2018-11-14 17:52 26 16 - 65 - Calm - 30.43 30.47 10 CLR 6-hr Min Temp (6pm): 26.1°F
6-hr Max Temp (6pm): 35.1°F
2018-11-14 16:52 30 14 - 50 - Calm - 30.44 30.47 10 CLR None
2018-11-14 15:52 33 14 30 44 10° 3 - 30.46 30.49 9 CLR None
2018-11-14 14:52 35 11 31 36 70° 5 - 30.48 30.51 10 CLR None
2018-11-14 13:52 34 10 29 36 Variable 6 - 30.49 30.52 10 CLR None
2018-11-14 12:52 33 12 28 41 Variable 6 - 30.52 30.56 10 CLR None
2018-11-14 11:52 30 13 - 48 - Calm - 30.56 30.60 10 CLR 6-hr Min Temp (12pm): 12.9°F
6-hr Max Temp (12pm): 30.9°F
2018-11-14 10:52 27 13 - 54 - Calm - 30.60 30.63 9 CLR None
2018-11-14 09:52 25 13 - 59 - Calm - 30.60 30.63 9 CLR None
2018-11-14 08:52 22 12 - 65 - Calm - 30.58 30.62 9 CLR None
2018-11-14 07:52 18 14 - 84 - Calm - 30.57 30.61 9 CLR None
2018-11-14 06:52 14 10 - 83 - Calm - 30.56 30.60 9 CLR None
2018-11-14 05:52 14 9 8 79 290° 3 - 30.54 30.58 10 CLR 6-hr Min Temp (6am): 14.0°F
6-hr Max Temp (6am): 17.1°F
2018-11-14 04:52 15 10 9 79 330° 3 - 30.53 30.56 10 CLR None
2018-11-14 03:52 16 10 9 76 330° 5 - 30.51 30.55 10 CLR None
2018-11-14 02:52 15 10 6 79 330° 6 - 30.51 30.55 10 CLR None
2018-11-14 01:52 15 10 9 79 320° 3 - 30.52 30.55 10 CLR None
2018-11-14 00:52 15 10 6 79 290° 6 - 30.51 30.55 10 CLR None
2018-11-13 23:52 16 10 7 76 260° 6 - 30.51 30.55 9 CLR 6-hr Min Temp (12am): 15.1°F
6-hr Max Temp (12am): 21.0°F
24-hr Min Temp (12am): 15.1°F
24-hr Max Temp (12am): 28.0°F
2018-11-13 22:52 17 11 9 76 280° 6 - 30.50 30.53 9 CLR None
2018-11-13 21:52 18 12 10 77 240° 6 - 30.50 30.53 7 CLR None
2018-11-13 20:52 19 12 12 73 240° 5 - 30.48 30.51 9 CLR None

Support USWX by starting your Amazon purchase here.